This is the latest recevied weather packets stored in our database for station/object DL3GCR-10. If no packets are shown the sender has not sent any weather packets the latest 10 day(s).
| Time | Temp. | Humidity | Pressure | Rain* | Wind** | Luminosity | Snow |
|---|---|---|---|---|---|---|---|
| 1777099912 | 9.44° C | 53% | 1020.7 hPa | - | - | - | - |
| 1777099011 | 8.89° C | 54% | 1020.7 hPa | - | - | - | - |
| 1777098111 | 8.33° C | 56% | 1020.8 hPa | - | - | - | - |
| 1777097211 | 7.78° C | 58% | 1020.8 hPa | - | - | - | - |
| 1777096311 | 7.22° C | 63% | 1020.9 hPa | - | - | - | - |
| 1777095411 | 6.67° C | 63% | 1020.8 hPa | - | - | - | - |
| 1777094511 | 5.56° C | 64% | 1020.6 hPa | - | - | - | - |
| 1777093611 | 5° C | 64% | 1020.6 hPa | - | - | - | - |
| 1777092710 | 5° C | 64% | 1020.6 hPa | - | - | - | - |
| 1777091810 | 5° C | 63% | 1020.4 hPa | - | - | - | - |
| 1777090915 | 5.56° C | 61% | 1020.2 hPa | - | - | - | - |
| 1777090015 | 5.56° C | 61% | 1020.3 hPa | - | - | - | - |
| 1777089115 | 6.11° C | 59% | 1020.3 hPa | - | - | - | - |
| 1777088215 | 5.56° C | 61% | 1020.3 hPa | - | - | - | - |
| 1777087315 | 6.11° C | 60% | 1020.5 hPa | - | - | - | - |
| 1777086415 | 6.67° C | 59% | 1020.4 hPa | - | - | - | - |
| 1777085514 | 6.11° C | 59% | 1020.5 hPa | - | - | - | - |
| 1777084614 | 6.67° C | 58% | 1020.6 hPa | - | - | - | - |
| 1777083714 | 6.67° C | 59% | 1020.5 hPa | - | - | - | - |
| 1777082813 | 6.67° C | 56% | 1020.4 hPa | - | - | - | - |
| 1777081913 | 7.22° C | 56% | 1020.3 hPa | - | - | - | - |
| 1777081013 | 7.22° C | 56% | 1020.2 hPa | - | - | - | - |
| 1777080112 | 7.22° C | 56% | 1020.2 hPa | - | - | - | - |
| 1777078312 | 7.78° C | 56% | 1020.4 hPa | - | - | - | - |
| 1777077412 | 7.78° C | 55% | 1020.6 hPa | - | - | - | - |
* Rain since midnight (hover to see other rain measurements)
** Current wind speed in m/s (hover to see current wind gust speed)